sensor_id;sensor_type;location;lat;lon;timestamp;P1;durP1;ratioP1;P2;durP2;ratioP2
25549;SDS011;13444;50.562;7.262;2022-10-17T00:01:25;9.02;;;5.63;;
25549;SDS011;13444;50.562;7.262;2022-10-17T00:03:51;11.02;;;6.18;;
25549;SDS011;13444;50.562;7.262;2022-10-17T00:06:16;14.15;;;6.22;;
25549;SDS011;13444;50.562;7.262;2022-10-17T00:08:42;8.13;;;5.75;;
25549;SDS011;13444;50.562;7.262;2022-10-17T00:11:12;10.68;;;5.60;;
25549;SDS011;13444;50.562;7.262;2022-10-17T00:13:43;9.38;;;6.20;;
25549;SDS011;13444;50.562;7.262;2022-10-17T00:16:09;12.65;;;5.70;;
25549;SDS011;13444;50.562;7.262;2022-10-17T00:18:35;7.75;;;5.45;;
25549;SDS011;13444;50.562;7.262;2022-10-17T00:21:00;7.30;;;5.40;;
25549;SDS011;13444;50.562;7.262;2022-10-17T00:23:26;11.20;;;5.40;;
25549;SDS011;13444;50.562;7.262;2022-10-17T00:26:00;9.43;;;5.18;;
25549;SDS011;13444;50.562;7.262;2022-10-17T00:28:26;6.97;;;4.85;;
25549;SDS011;13444;50.562;7.262;2022-10-17T00:30:55;10.05;;;4.60;;
25549;SDS011;13444;50.562;7.262;2022-10-17T00:33:26;6.55;;;5.22;;
25549;SDS011;13444;50.562;7.262;2022-10-17T00:38:39;9.32;;;5.30;;
25549;SDS011;13444;50.562;7.262;2022-10-17T00:41:06;12.68;;;6.15;;
25549;SDS011;13444;50.562;7.262;2022-10-17T00:46:29;10.80;;;6.10;;
25549;SDS011;13444;50.562;7.262;2022-10-17T00:48:57;11.93;;;6.32;;
25549;SDS011;13444;50.562;7.262;2022-10-17T00:51:44;7.47;;;5.97;;
25549;SDS011;13444;50.562;7.262;2022-10-17T00:54:13;9.05;;;6.43;;
25549;SDS011;13444;50.562;7.262;2022-10-17T00:56:41;8.85;;;6.45;;
25549;SDS011;13444;50.562;7.262;2022-10-17T00:59:08;10.13;;;6.63;;
25549;SDS011;13444;50.562;7.262;2022-10-17T01:01:36;10.43;;;7.10;;
25549;SDS011;13444;50.562;7.262;2022-10-17T01:04:02;10.77;;;6.47;;
25549;SDS011;13444;50.562;7.262;2022-10-17T01:06:27;9.05;;;6.25;;
25549;SDS011;13444;50.562;7.262;2022-10-17T01:08:53;12.23;;;6.38;;
25549;SDS011;13444;50.562;7.262;2022-10-17T01:11:26;11.05;;;6.38;;
25549;SDS011;13444;50.562;7.262;2022-10-17T01:14:10;14.27;;;6.78;;
25549;SDS011;13444;50.562;7.262;2022-10-17T01:16:51;10.27;;;6.30;;
25549;SDS011;13444;50.562;7.262;2022-10-17T01:19:41;9.32;;;6.45;;
25549;SDS011;13444;50.562;7.262;2022-10-17T01:22:26;12.18;;;6.43;;
25549;SDS011;13444;50.562;7.262;2022-10-17T01:31:01;7.70;;;6.65;;
25549;SDS011;13444;50.562;7.262;2022-10-17T01:33:42;9.68;;;6.32;;
25549;SDS011;13444;50.562;7.262;2022-10-17T01:38:57;9.60;;;6.88;;
25549;SDS011;13444;50.562;7.262;2022-10-17T01:41:38;15.15;;;6.65;;
25549;SDS011;13444;50.562;7.262;2022-10-17T01:44:14;9.48;;;5.75;;
25549;SDS011;13444;50.562;7.262;2022-10-17T01:46:51;7.25;;;5.82;;
25549;SDS011;13444;50.562;7.262;2022-10-17T01:49:24;11.07;;;6.22;;
25549;SDS011;13444;50.562;7.262;2022-10-17T01:51:54;9.18;;;6.20;;
25549;SDS011;13444;50.562;7.262;2022-10-17T01:54:44;8.65;;;5.93;;
25549;SDS011;13444;50.562;7.262;2022-10-17T01:57:41;10.15;;;6.05;;
25549;SDS011;13444;50.562;7.262;2022-10-17T02:00:12;11.38;;;6.07;;
25549;SDS011;13444;50.562;7.262;2022-10-17T02:02:42;9.30;;;5.35;;
25549;SDS011;13444;50.562;7.262;2022-10-17T02:05:10;12.95;;;5.97;;
25549;SDS011;13444;50.562;7.262;2022-10-17T02:07:36;9.38;;;5.70;;
25549;SDS011;13444;50.562;7.262;2022-10-17T02:10:03;9.38;;;5.13;;
25549;SDS011;13444;50.562;7.262;2022-10-17T02:18:31;15.70;;;5.85;;
25549;SDS011;13444;50.562;7.262;2022-10-17T02:21:19;10.00;;;6.18;;
25549;SDS011;13444;50.562;7.262;2022-10-17T02:24:06;9.55;;;5.65;;
25549;SDS011;13444;50.562;7.262;2022-10-17T02:27:02;12.60;;;5.80;;
25549;SDS011;13444;50.562;7.262;2022-10-17T02:29:42;6.68;;;5.30;;
25549;SDS011;13444;50.562;7.262;2022-10-17T02:32:10;12.88;;;5.72;;
25549;SDS011;13444;50.562;7.262;2022-10-17T02:34:49;10.30;;;5.38;;
25549;SDS011;13444;50.562;7.262;2022-10-17T02:37:18;7.90;;;5.57;;
25549;SDS011;13444;50.562;7.262;2022-10-17T02:39:50;8.40;;;5.93;;
25549;SDS011;13444;50.562;7.262;2022-10-17T02:42:18;9.45;;;5.35;;
25549;SDS011;13444;50.562;7.262;2022-10-17T02:44:47;12.20;;;6.30;;
25549;SDS011;13444;50.562;7.262;2022-10-17T02:47:21;19.20;;;5.50;;
25549;SDS011;13444;50.562;7.262;2022-10-17T02:49:51;10.48;;;6.15;;
25549;SDS011;13444;50.562;7.262;2022-10-17T02:52:27;11.85;;;5.85;;
25549;SDS011;13444;50.562;7.262;2022-10-17T02:55:35;13.93;;;6.30;;
25549;SDS011;13444;50.562;7.262;2022-10-17T02:58:08;10.27;;;5.80;;
25549;SDS011;13444;50.562;7.262;2022-10-17T03:00:38;10.23;;;6.28;;
25549;SDS011;13444;50.562;7.262;2022-10-17T03:03:17;12.68;;;5.88;;
25549;SDS011;13444;50.562;7.262;2022-10-17T03:05:47;11.23;;;5.97;;
25549;SDS011;13444;50.562;7.262;2022-10-17T03:08:13;10.85;;;5.88;;
25549;SDS011;13444;50.562;7.262;2022-10-17T03:10:39;12.73;;;6.47;;
25549;SDS011;13444;50.562;7.262;2022-10-17T03:13:04;12.45;;;5.80;;
25549;SDS011;13444;50.562;7.262;2022-10-17T03:15:30;9.95;;;5.50;;
25549;SDS011;13444;50.562;7.262;2022-10-17T03:17:55;10.05;;;5.82;;
25549;SDS011;13444;50.562;7.262;2022-10-17T03:20:21;9.07;;;5.40;;
25549;SDS011;13444;50.562;7.262;2022-10-17T03:22:46;9.18;;;5.20;;
25549;SDS011;13444;50.562;7.262;2022-10-17T03:25:12;8.48;;;5.07;;
25549;SDS011;13444;50.562;7.262;2022-10-17T03:27:37;8.25;;;4.78;;
25549;SDS011;13444;50.562;7.262;2022-10-17T03:30:03;11.13;;;5.28;;
25549;SDS011;13444;50.562;7.262;2022-10-17T03:32:31;13.40;;;5.72;;
25549;SDS011;13444;50.562;7.262;2022-10-17T03:34:58;11.68;;;5.72;;
25549;SDS011;13444;50.562;7.262;2022-10-17T03:37:23;17.08;;;5.75;;
25549;SDS011;13444;50.562;7.262;2022-10-17T03:39:49;10.13;;;5.13;;
25549;SDS011;13444;50.562;7.262;2022-10-17T03:42:14;6.97;;;5.15;;
25549;SDS011;13444;50.562;7.262;2022-10-17T03:44:40;12.63;;;5.40;;
25549;SDS011;13444;50.562;7.262;2022-10-17T03:47:05;11.98;;;5.20;;
25549;SDS011;13444;50.562;7.262;2022-10-17T03:49:31;8.00;;;5.40;;
25549;SDS011;13444;50.562;7.262;2022-10-17T03:51:56;12.40;;;6.00;;
25549;SDS011;13444;50.562;7.262;2022-10-17T03:54:22;10.02;;;5.53;;
25549;SDS011;13444;50.562;7.262;2022-10-17T03:56:47;10.88;;;5.80;;
25549;SDS011;13444;50.562;7.262;2022-10-17T03:59:13;10.55;;;5.22;;
25549;SDS011;13444;50.562;7.262;2022-10-17T04:01:39;10.70;;;5.53;;
25549;SDS011;13444;50.562;7.262;2022-10-17T04:04:06;13.75;;;5.18;;
25549;SDS011;13444;50.562;7.262;2022-10-17T04:06:31;9.13;;;4.78;;
25549;SDS011;13444;50.562;7.262;2022-10-17T04:08:57;12.00;;;5.63;;
25549;SDS011;13444;50.562;7.262;2022-10-17T04:11:23;8.27;;;5.03;;
25549;SDS011;13444;50.562;7.262;2022-10-17T04:13:53;6.28;;;4.90;;
25549;SDS011;13444;50.562;7.262;2022-10-17T04:16:19;13.00;;;5.10;;
25549;SDS011;13444;50.562;7.262;2022-10-17T04:18:46;13.57;;;5.68;;
25549;SDS011;13444;50.562;7.262;2022-10-17T04:21:11;8.25;;;5.68;;
25549;SDS011;13444;50.562;7.262;2022-10-17T04:23:38;13.32;;;5.60;;
25549;SDS011;13444;50.562;7.262;2022-10-17T04:26:03;9.85;;;5.30;;
25549;SDS011;13444;50.562;7.262;2022-10-17T04:28:31;12.02;;;4.88;;
25549;SDS011;13444;50.562;7.262;2022-10-17T04:31:01;12.45;;;6.10;;
25549;SDS011;13444;50.562;7.262;2022-10-17T04:33:29;12.27;;;6.05;;
25549;SDS011;13444;50.562;7.262;2022-10-17T04:35:55;11.35;;;6.35;;
25549;SDS011;13444;50.562;7.262;2022-10-17T04:38:21;10.13;;;5.93;;
25549;SDS011;13444;50.562;7.262;2022-10-17T04:40:46;9.90;;;6.35;;
25549;SDS011;13444;50.562;7.262;2022-10-17T04:43:12;8.82;;;6.72;;
25549;SDS011;13444;50.562;7.262;2022-10-17T04:45:37;14.68;;;6.15;;
25549;SDS011;13444;50.562;7.262;2022-10-17T04:48:03;11.27;;;5.55;;
25549;SDS011;13444;50.562;7.262;2022-10-17T04:50:28;10.80;;;5.95;;
25549;SDS011;13444;50.562;7.262;2022-10-17T04:52:54;7.40;;;5.78;;
25549;SDS011;13444;50.562;7.262;2022-10-17T04:55:20;10.48;;;5.18;;
25549;SDS011;13444;50.562;7.262;2022-10-17T04:57:45;9.25;;;5.65;;
25549;SDS011;13444;50.562;7.262;2022-10-17T05:00:11;8.70;;;5.93;;
25549;SDS011;13444;50.562;7.262;2022-10-17T05:02:37;10.68;;;6.63;;
25549;SDS011;13444;50.562;7.262;2022-10-17T05:05:02;11.52;;;6.78;;
25549;SDS011;13444;50.562;7.262;2022-10-17T05:07:28;13.52;;;6.40;;
25549;SDS011;13444;50.562;7.262;2022-10-17T05:09:54;12.95;;;6.05;;
25549;SDS011;13444;50.562;7.262;2022-10-17T05:12:19;7.57;;;5.97;;
25549;SDS011;13444;50.562;7.262;2022-10-17T05:14:45;11.45;;;6.22;;
25549;SDS011;13444;50.562;7.262;2022-10-17T05:17:10;10.68;;;6.50;;
25549;SDS011;13444;50.562;7.262;2022-10-17T05:19:36;11.02;;;6.47;;
25549;SDS011;13444;50.562;7.262;2022-10-17T05:22:01;18.30;;;7.10;;
25549;SDS011;13444;50.562;7.262;2022-10-17T05:24:27;12.38;;;6.03;;
25549;SDS011;13444;50.562;7.262;2022-10-17T05:26:52;11.90;;;6.90;;
25549;SDS011;13444;50.562;7.262;2022-10-17T05:29:18;14.77;;;7.13;;
25549;SDS011;13444;50.562;7.262;2022-10-17T05:31:43;9.57;;;6.68;;
25549;SDS011;13444;50.562;7.262;2022-10-17T05:34:09;9.80;;;6.15;;
25549;SDS011;13444;50.562;7.262;2022-10-17T05:36:34;20.83;;;7.57;;
25549;SDS011;13444;50.562;7.262;2022-10-17T05:39:00;14.50;;;6.88;;
25549;SDS011;13444;50.562;7.262;2022-10-17T05:41:25;10.15;;;6.55;;
25549;SDS011;13444;50.562;7.262;2022-10-17T05:43:51;10.57;;;6.32;;
25549;SDS011;13444;50.562;7.262;2022-10-17T05:46:16;12.68;;;6.55;;
25549;SDS011;13444;50.562;7.262;2022-10-17T05:48:42;9.05;;;6.97;;
25549;SDS011;13444;50.562;7.262;2022-10-17T05:51:08;14.05;;;7.25;;
25549;SDS011;13444;50.562;7.262;2022-10-17T05:53:35;12.25;;;7.68;;
25549;SDS011;13444;50.562;7.262;2022-10-17T05:56:03;13.00;;;6.88;;
25549;SDS011;13444;50.562;7.262;2022-10-17T05:58:30;12.27;;;7.50;;
25549;SDS011;13444;50.562;7.262;2022-10-17T06:00:58;14.38;;;6.75;;
25549;SDS011;13444;50.562;7.262;2022-10-17T06:03:28;9.55;;;6.43;;
25549;SDS011;13444;50.562;7.262;2022-10-17T06:05:54;10.38;;;6.25;;
25549;SDS011;13444;50.562;7.262;2022-10-17T06:08:20;11.05;;;6.40;;
25549;SDS011;13444;50.562;7.262;2022-10-17T06:10:49;8.90;;;6.25;;
25549;SDS011;13444;50.562;7.262;2022-10-17T06:13:15;9.32;;;6.32;;
25549;SDS011;13444;50.562;7.262;2022-10-17T06:15:42;11.30;;;6.40;;
25549;SDS011;13444;50.562;7.262;2022-10-17T06:18:08;17.27;;;8.07;;
25549;SDS011;13444;50.562;7.262;2022-10-17T06:20:33;12.05;;;6.60;;
25549;SDS011;13444;50.562;7.262;2022-10-17T06:22:59;12.20;;;6.60;;
25549;SDS011;13444;50.562;7.262;2022-10-17T06:25:24;7.28;;;6.10;;
25549;SDS011;13444;50.562;7.262;2022-10-17T06:27:50;25.38;;;7.53;;
25549;SDS011;13444;50.562;7.262;2022-10-17T06:30:16;17.05;;;6.95;;
25549;SDS011;13444;50.562;7.262;2022-10-17T06:32:41;15.10;;;6.60;;
25549;SDS011;13444;50.562;7.262;2022-10-17T06:35:07;11.40;;;5.60;;
25549;SDS011;13444;50.562;7.262;2022-10-17T06:37:33;10.10;;;5.70;;
25549;SDS011;13444;50.562;7.262;2022-10-17T06:39:59;5.63;;;4.55;;
25549;SDS011;13444;50.562;7.262;2022-10-17T06:42:24;7.65;;;4.70;;
25549;SDS011;13444;50.562;7.262;2022-10-17T06:44:50;9.68;;;5.28;;
25549;SDS011;13444;50.562;7.262;2022-10-17T06:47:15;10.65;;;4.88;;
25549;SDS011;13444;50.562;7.262;2022-10-17T06:49:41;6.32;;;4.72;;
25549;SDS011;13444;50.562;7.262;2022-10-17T06:52:06;10.65;;;4.95;;
25549;SDS011;13444;50.562;7.262;2022-10-17T06:54:33;8.95;;;5.70;;
25549;SDS011;13444;50.562;7.262;2022-10-17T06:56:59;7.45;;;4.97;;
25549;SDS011;13444;50.562;7.262;2022-10-17T06:59:24;7.68;;;4.88;;
25549;SDS011;13444;50.562;7.262;2022-10-17T07:01:50;12.52;;;4.88;;
25549;SDS011;13444;50.562;7.262;2022-10-17T07:04:15;6.03;;;4.53;;
25549;SDS011;13444;50.562;7.262;2022-10-17T07:06:41;8.82;;;4.40;;
25549;SDS011;13444;50.562;7.262;2022-10-17T07:09:07;10.30;;;4.82;;
25549;SDS011;13444;50.562;7.262;2022-10-17T07:11:33;10.43;;;4.10;;
25549;SDS011;13444;50.562;7.262;2022-10-17T07:13:59;6.43;;;4.38;;
25549;SDS011;13444;50.562;7.262;2022-10-17T07:16:25;8.18;;;4.85;;
25549;SDS011;13444;50.562;7.262;2022-10-17T07:18:51;7.63;;;4.63;;
25549;SDS011;13444;50.562;7.262;2022-10-17T07:21:18;8.45;;;4.75;;
25549;SDS011;13444;50.562;7.262;2022-10-17T07:23:44;9.65;;;4.43;;
25549;SDS011;13444;50.562;7.262;2022-10-17T07:26:11;10.27;;;4.38;;
25549;SDS011;13444;50.562;7.262;2022-10-17T07:28:39;6.80;;;4.10;;
25549;SDS011;13444;50.562;7.262;2022-10-17T07:31:10;7.78;;;4.28;;
25549;SDS011;13444;50.562;7.262;2022-10-17T07:33:38;7.45;;;5.03;;
25549;SDS011;13444;50.562;7.262;2022-10-17T07:36:04;15.15;;;4.93;;
25549;SDS011;13444;50.562;7.262;2022-10-17T07:38:30;10.85;;;5.55;;
25549;SDS011;13444;50.562;7.262;2022-10-17T07:40:57;8.45;;;4.00;;
25549;SDS011;13444;50.562;7.262;2022-10-17T07:43:24;7.20;;;4.07;;
25549;SDS011;13444;50.562;7.262;2022-10-17T07:45:51;7.57;;;4.03;;
25549;SDS011;13444;50.562;7.262;2022-10-17T07:48:17;7.45;;;4.18;;
25549;SDS011;13444;50.562;7.262;2022-10-17T07:50:43;6.55;;;3.95;;
25549;SDS011;13444;50.562;7.262;2022-10-17T07:53:09;8.10;;;4.35;;
25549;SDS011;13444;50.562;7.262;2022-10-17T07:55:38;8.52;;;4.43;;
25549;SDS011;13444;50.562;7.262;2022-10-17T07:58:04;8.55;;;3.72;;
25549;SDS011;13444;50.562;7.262;2022-10-17T08:00:31;12.82;;;4.25;;
25549;SDS011;13444;50.562;7.262;2022-10-17T08:02:57;7.53;;;3.45;;
25549;SDS011;13444;50.562;7.262;2022-10-17T08:05:22;5.70;;;3.40;;
25549;SDS011;13444;50.562;7.262;2022-10-17T08:07:48;9.05;;;4.35;;
25549;SDS011;13444;50.562;7.262;2022-10-17T08:10:14;6.65;;;3.53;;
25549;SDS011;13444;50.562;7.262;2022-10-17T08:12:40;7.68;;;3.72;;
25549;SDS011;13444;50.562;7.262;2022-10-17T08:15:06;6.25;;;3.40;;
25549;SDS011;13444;50.562;7.262;2022-10-17T08:17:33;7.82;;;3.38;;
25549;SDS011;13444;50.562;7.262;2022-10-17T08:19:59;10.02;;;3.30;;
25549;SDS011;13444;50.562;7.262;2022-10-17T08:22:25;7.00;;;3.45;;
25549;SDS011;13444;50.562;7.262;2022-10-17T08:24:50;6.13;;;3.20;;
25549;SDS011;13444;50.562;7.262;2022-10-17T08:27:16;7.63;;;3.40;;
25549;SDS011;13444;50.562;7.262;2022-10-17T08:29:47;10.18;;;3.63;;
25549;SDS011;13444;50.562;7.262;2022-10-17T08:32:17;10.00;;;3.60;;
25549;SDS011;13444;50.562;7.262;2022-10-17T08:34:47;6.20;;;2.95;;
25549;SDS011;13444;50.562;7.262;2022-10-17T08:37:13;6.63;;;3.05;;
25549;SDS011;13444;50.562;7.262;2022-10-17T08:39:39;6.95;;;3.10;;
25549;SDS011;13444;50.562;7.262;2022-10-17T08:47:50;9.25;;;3.33;;
25549;SDS011;13444;50.562;7.262;2022-10-17T08:50:24;6.30;;;3.22;;
25549;SDS011;13444;50.562;7.262;2022-10-17T08:53:02;11.25;;;2.80;;
25549;SDS011;13444;50.562;7.262;2022-10-17T08:55:38;7.93;;;3.20;;
25549;SDS011;13444;50.562;7.262;2022-10-17T08:58:24;7.75;;;3.10;;
25549;SDS011;13444;50.562;7.262;2022-10-17T09:01:08;9.68;;;2.97;;
25549;SDS011;13444;50.562;7.262;2022-10-17T09:07:17;7.05;;;3.20;;
25549;SDS011;13444;50.562;7.262;2022-10-17T09:10:02;7.65;;;3.28;;
25549;SDS011;13444;50.562;7.262;2022-10-17T09:13:02;8.52;;;3.05;;
25549;SDS011;13444;50.562;7.262;2022-10-17T09:18:15;4.97;;;2.50;;
25549;SDS011;13444;50.562;7.262;2022-10-17T09:20:53;6.22;;;2.85;;
25549;SDS011;13444;50.562;7.262;2022-10-17T09:23:43;5.35;;;2.88;;
25549;SDS011;13444;50.562;7.262;2022-10-17T09:26:12;5.93;;;2.85;;
25549;SDS011;13444;50.562;7.262;2022-10-17T09:28:39;8.05;;;2.58;;
25549;SDS011;13444;50.562;7.262;2022-10-17T09:31:13;7.38;;;3.05;;
25549;SDS011;13444;50.562;7.262;2022-10-17T09:33:46;3.35;;;2.67;;
25549;SDS011;13444;50.562;7.262;2022-10-17T09:36:18;6.07;;;2.83;;
25549;SDS011;13444;50.562;7.262;2022-10-17T09:38:48;7.35;;;2.80;;
25549;SDS011;13444;50.562;7.262;2022-10-17T09:41:18;10.25;;;2.75;;
25549;SDS011;13444;50.562;7.262;2022-10-17T09:43:45;5.22;;;2.67;;
25549;SDS011;13444;50.562;7.262;2022-10-17T09:46:14;8.10;;;2.50;;
25549;SDS011;13444;50.562;7.262;2022-10-17T09:48:48;8.82;;;2.95;;
25549;SDS011;13444;50.562;7.262;2022-10-17T09:51:22;5.18;;;2.72;;
25549;SDS011;13444;50.562;7.262;2022-10-17T09:53:50;8.25;;;2.97;;
25549;SDS011;13444;50.562;7.262;2022-10-17T09:56:21;6.03;;;2.60;;
25549;SDS011;13444;50.562;7.262;2022-10-17T09:58:51;11.77;;;2.83;;
25549;SDS011;13444;50.562;7.262;2022-10-17T10:01:24;9.32;;;2.80;;
25549;SDS011;13444;50.562;7.262;2022-10-17T10:06:38;7.43;;;2.47;;
25549;SDS011;13444;50.562;7.262;2022-10-17T10:09:05;6.95;;;2.83;;
25549;SDS011;13444;50.562;7.262;2022-10-17T10:11:51;6.20;;;2.60;;
25549;SDS011;13444;50.562;7.262;2022-10-17T10:16:53;4.90;;;2.47;;
25549;SDS011;13444;50.562;7.262;2022-10-17T10:22:05;6.00;;;2.33;;
25549;SDS011;13444;50.562;7.262;2022-10-17T10:24:40;12.13;;;2.90;;
25549;SDS011;13444;50.562;7.262;2022-10-17T10:27:09;6.18;;;2.22;;
25549;SDS011;13444;50.562;7.262;2022-10-17T10:29:48;5.97;;;2.30;;
25549;SDS011;13444;50.562;7.262;2022-10-17T10:32:36;5.38;;;2.30;;
25549;SDS011;13444;50.562;7.262;2022-10-17T10:38:00;6.40;;;2.38;;
25549;SDS011;13444;50.562;7.262;2022-10-17T10:43:03;3.67;;;2.10;;
25549;SDS011;13444;50.562;7.262;2022-10-17T10:56:16;3.53;;;2.22;;
25549;SDS011;13444;50.562;7.262;2022-10-17T10:59:02;5.05;;;2.30;;
25549;SDS011;13444;50.562;7.262;2022-10-17T11:01:47;5.88;;;2.58;;
25549;SDS011;13444;50.562;7.262;2022-10-17T11:07:05;7.70;;;2.33;;
25549;SDS011;13444;50.562;7.262;2022-10-17T11:20:29;3.17;;;2.03;;
25549;SDS011;13444;50.562;7.262;2022-10-17T11:26:01;8.13;;;2.65;;
25549;SDS011;13444;50.562;7.262;2022-10-17T11:28:31;8.60;;;2.50;;
25549;SDS011;13444;50.562;7.262;2022-10-17T11:30:59;7.60;;;2.85;;
25549;SDS011;13444;50.562;7.262;2022-10-17T11:33:53;7.85;;;2.65;;
25549;SDS011;13444;50.562;7.262;2022-10-17T11:36:26;9.77;;;2.15;;
25549;SDS011;13444;50.562;7.262;2022-10-17T11:38:56;10.95;;;2.63;;
25549;SDS011;13444;50.562;7.262;2022-10-17T11:41:28;5.57;;;2.25;;
25549;SDS011;13444;50.562;7.262;2022-10-17T11:43:56;3.92;;;2.10;;
25549;SDS011;13444;50.562;7.262;2022-10-17T11:46:29;4.47;;;2.40;;
25549;SDS011;13444;50.562;7.262;2022-10-17T11:49:00;3.58;;;2.17;;
25549;SDS011;13444;50.562;7.262;2022-10-17T11:51:26;5.72;;;2.40;;
25549;SDS011;13444;50.562;7.262;2022-10-17T11:53:56;10.95;;;2.60;;
25549;SDS011;13444;50.562;7.262;2022-10-17T11:56:28;6.40;;;2.35;;
25549;SDS011;13444;50.562;7.262;2022-10-17T11:59:12;6.32;;;2.42;;
25549;SDS011;13444;50.562;7.262;2022-10-17T12:01:54;5.18;;;2.20;;
25549;SDS011;13444;50.562;7.262;2022-10-17T12:04:41;3.25;;;2.15;;
25549;SDS011;13444;50.562;7.262;2022-10-17T12:07:40;4.80;;;2.17;;
25549;SDS011;13444;50.562;7.262;2022-10-17T12:10:19;7.18;;;2.20;;
25549;SDS011;13444;50.562;7.262;2022-10-17T12:12:54;6.88;;;2.38;;
25549;SDS011;13444;50.562;7.262;2022-10-17T12:17:55;5.07;;;2.40;;
25549;SDS011;13444;50.562;7.262;2022-10-17T12:20:28;8.60;;;2.85;;
25549;SDS011;13444;50.562;7.262;2022-10-17T12:23:03;6.40;;;2.53;;
25549;SDS011;13444;50.562;7.262;2022-10-17T12:25:37;8.65;;;2.70;;
25549;SDS011;13444;50.562;7.262;2022-10-17T12:29:00;7.75;;;2.50;;
25549;SDS011;13444;50.562;7.262;2022-10-17T12:49:19;9.98;;;2.92;;
25549;SDS011;13444;50.562;7.262;2022-10-17T12:55:17;11.88;;;2.60;;
25549;SDS011;13444;50.562;7.262;2022-10-17T12:57:33;8.82;;;3.10;;
25549;SDS011;13444;50.562;7.262;2022-10-17T13:00:16;9.07;;;2.45;;
25549;SDS011;13444;50.562;7.262;2022-10-17T13:02:45;7.85;;;2.30;;
25549;SDS011;13444;50.562;7.262;2022-10-17T13:05:25;8.75;;;2.42;;
25549;SDS011;13444;50.562;7.262;2022-10-17T13:08:02;11.68;;;2.40;;
25549;SDS011;13444;50.562;7.262;2022-10-17T13:10:31;5.03;;;2.40;;
25549;SDS011;13444;50.562;7.262;2022-10-17T13:13:02;7.05;;;2.30;;
25549;SDS011;13444;50.562;7.262;2022-10-17T13:15:29;8.35;;;2.20;;
25549;SDS011;13444;50.562;7.262;2022-10-17T13:17:58;7.15;;;2.30;;
25549;SDS011;13444;50.562;7.262;2022-10-17T13:20:25;9.23;;;2.40;;
25549;SDS011;13444;50.562;7.262;2022-10-17T13:22:52;8.98;;;2.47;;
25549;SDS011;13444;50.562;7.262;2022-10-17T13:25:21;7.47;;;2.30;;
25549;SDS011;13444;50.562;7.262;2022-10-17T13:27:48;5.82;;;1.85;;
25549;SDS011;13444;50.562;7.262;2022-10-17T13:32:47;4.63;;;1.90;;
25549;SDS011;13444;50.562;7.262;2022-10-17T13:35:14;9.10;;;2.42;;
25549;SDS011;13444;50.562;7.262;2022-10-17T13:37:42;5.45;;;2.00;;
25549;SDS011;13444;50.562;7.262;2022-10-17T13:40:17;8.13;;;2.05;;
25549;SDS011;13444;50.562;7.262;2022-10-17T13:42:51;7.95;;;2.10;;
25549;SDS011;13444;50.562;7.262;2022-10-17T13:47:51;9.82;;;2.25;;
25549;SDS011;13444;50.562;7.262;2022-10-17T13:50:22;4.93;;;1.42;;
25549;SDS011;13444;50.562;7.262;2022-10-17T13:53:06;5.70;;;1.85;;
25549;SDS011;13444;50.562;7.262;2022-10-17T13:58:24;6.50;;;1.92;;
25549;SDS011;13444;50.562;7.262;2022-10-17T14:00:51;4.75;;;2.10;;
25549;SDS011;13444;50.562;7.262;2022-10-17T14:03:18;9.63;;;2.17;;
25549;SDS011;13444;50.562;7.262;2022-10-17T14:05:57;8.85;;;2.42;;
25549;SDS011;13444;50.562;7.262;2022-10-17T14:08:26;5.45;;;2.00;;
25549;SDS011;13444;50.562;7.262;2022-10-17T14:10:52;5.85;;;2.13;;
25549;SDS011;13444;50.562;7.262;2022-10-17T14:13:22;5.10;;;1.75;;
25549;SDS011;13444;50.562;7.262;2022-10-17T14:15:50;6.43;;;1.90;;
25549;SDS011;13444;50.562;7.262;2022-10-17T14:18:25;8.40;;;2.22;;
25549;SDS011;13444;50.562;7.262;2022-10-17T14:20:54;8.88;;;2.10;;
25549;SDS011;13444;50.562;7.262;2022-10-17T14:26:07;6.90;;;2.10;;
25549;SDS011;13444;50.562;7.262;2022-10-17T14:28:35;3.80;;;1.90;;
25549;SDS011;13444;50.562;7.262;2022-10-17T14:33:50;6.13;;;2.20;;
25549;SDS011;13444;50.562;7.262;2022-10-17T14:36:16;7.43;;;2.00;;
25549;SDS011;13444;50.562;7.262;2022-10-17T14:38:47;5.88;;;2.03;;
25549;SDS011;13444;50.562;7.262;2022-10-17T14:41:25;6.35;;;1.95;;
25549;SDS011;13444;50.562;7.262;2022-10-17T14:43:54;7.07;;;2.38;;
25549;SDS011;13444;50.562;7.262;2022-10-17T14:46:22;5.18;;;1.85;;
25549;SDS011;13444;50.562;7.262;2022-10-17T14:48:55;10.07;;;2.13;;
25549;SDS011;13444;50.562;7.262;2022-10-17T14:51:26;8.63;;;1.90;;
25549;SDS011;13444;50.562;7.262;2022-10-17T14:54:25;7.78;;;2.10;;
25549;SDS011;13444;50.562;7.262;2022-10-17T14:56:48;7.63;;;2.20;;
25549;SDS011;13444;50.562;7.262;2022-10-17T14:59:16;6.47;;;2.03;;
25549;SDS011;13444;50.562;7.262;2022-10-17T15:01:46;5.63;;;1.90;;
25549;SDS011;13444;50.562;7.262;2022-10-17T15:04:15;5.90;;;1.95;;
25549;SDS011;13444;50.562;7.262;2022-10-17T15:06:41;8.63;;;1.90;;
25549;SDS011;13444;50.562;7.262;2022-10-17T15:09:07;3.97;;;1.90;;
25549;SDS011;13444;50.562;7.262;2022-10-17T15:11:34;4.97;;;2.58;;
25549;SDS011;13444;50.562;7.262;2022-10-17T15:13:59;5.93;;;1.70;;
25549;SDS011;13444;50.562;7.262;2022-10-17T15:16:26;6.90;;;2.22;;
25549;SDS011;13444;50.562;7.262;2022-10-17T15:18:55;8.55;;;2.30;;
25549;SDS011;13444;50.562;7.262;2022-10-17T15:21:21;11.90;;;2.85;;
25549;SDS011;13444;50.562;7.262;2022-10-17T15:23:48;7.15;;;2.20;;
25549;SDS011;13444;50.562;7.262;2022-10-17T15:26:18;5.93;;;2.00;;
25549;SDS011;13444;50.562;7.262;2022-10-17T15:28:46;6.93;;;1.88;;
25549;SDS011;13444;50.562;7.262;2022-10-17T15:31:14;7.05;;;1.77;;
25549;SDS011;13444;50.562;7.262;2022-10-17T15:33:42;5.20;;;2.17;;
25549;SDS011;13444;50.562;7.262;2022-10-17T15:36:17;5.65;;;2.25;;
25549;SDS011;13444;50.562;7.262;2022-10-17T15:38:45;7.30;;;1.92;;
25549;SDS011;13444;50.562;7.262;2022-10-17T15:41:11;6.35;;;2.03;;
25549;SDS011;13444;50.562;7.262;2022-10-17T15:43:37;6.10;;;2.35;;
25549;SDS011;13444;50.562;7.262;2022-10-17T15:46:02;5.38;;;1.80;;
25549;SDS011;13444;50.562;7.262;2022-10-17T15:48:29;5.28;;;1.80;;
25549;SDS011;13444;50.562;7.262;2022-10-17T15:50:56;6.85;;;1.73;;
25549;SDS011;13444;50.562;7.262;2022-10-17T15:53:21;7.32;;;2.00;;
25549;SDS011;13444;50.562;7.262;2022-10-17T15:55:48;6.53;;;2.53;;
25549;SDS011;13444;50.562;7.262;2022-10-17T15:58:15;6.35;;;2.22;;
25549;SDS011;13444;50.562;7.262;2022-10-17T16:00:42;5.03;;;2.30;;
25549;SDS011;13444;50.562;7.262;2022-10-17T16:03:08;5.43;;;2.28;;
25549;SDS011;13444;50.562;7.262;2022-10-17T16:05:34;5.68;;;2.13;;
25549;SDS011;13444;50.562;7.262;2022-10-17T16:07:59;6.15;;;2.38;;
25549;SDS011;13444;50.562;7.262;2022-10-17T16:10:25;5.82;;;2.40;;
25549;SDS011;13444;50.562;7.262;2022-10-17T16:12:51;6.07;;;2.22;;
25549;SDS011;13444;50.562;7.262;2022-10-17T16:15:23;6.13;;;2.05;;
25549;SDS011;13444;50.562;7.262;2022-10-17T16:17:50;4.95;;;2.38;;
25549;SDS011;13444;50.562;7.262;2022-10-17T16:20:17;6.25;;;2.80;;
25549;SDS011;13444;50.562;7.262;2022-10-17T16:22:43;7.55;;;2.58;;
25549;SDS011;13444;50.562;7.262;2022-10-17T16:25:15;6.13;;;2.30;;
25549;SDS011;13444;50.562;7.262;2022-10-17T16:27:47;8.48;;;2.45;;
25549;SDS011;13444;50.562;7.262;2022-10-17T16:30:14;7.63;;;2.90;;
25549;SDS011;13444;50.562;7.262;2022-10-17T16:32:39;6.88;;;3.17;;
25549;SDS011;13444;50.562;7.262;2022-10-17T16:35:05;11.32;;;5.50;;
25549;SDS011;13444;50.562;7.262;2022-10-17T16:37:31;8.45;;;5.43;;
25549;SDS011;13444;50.562;7.262;2022-10-17T16:39:57;11.10;;;5.00;;
25549;SDS011;13444;50.562;7.262;2022-10-17T16:42:23;10.02;;;4.22;;
25549;SDS011;13444;50.562;7.262;2022-10-17T16:44:48;13.27;;;4.05;;
25549;SDS011;13444;50.562;7.262;2022-10-17T16:47:15;7.68;;;3.20;;
25549;SDS011;13444;50.562;7.262;2022-10-17T16:49:41;9.65;;;3.55;;